Canelo, Arizona
Current Conditions -  °F | °C
As of 12:56 PM on Sunday 23 Nov 2014 (Local Time) from KALK Reporting Station
Clear Clear  
Wind Chill: 60°   Ceiling: Unl
Heat Index: 60°   Visibility: 10mi
Dew Point: 29°   Wind: 25mph
Humidity: 31%   Direction: 310°NW
Pressure: 30.07"   Gusts: 32mph
Location:  31.6748°N, 110.553°W
Report Text: KALK 231956Z AUTO 31022G28KT 10SM CLR 16/M02 A3007 RMK AO2 PK WND 30029/1942 SLP120 T01561017 TSNO
Loading
Personal Weather Stations






























Interactive Weather Map New forecast layout! Learn more

10-Day Weather Forecast

Advertisements
Track Severe Weather on mobile